Time;durP1;ratioP1;P1;durP2;ratioP2;P2;SDS_P1;SDS_P2;PMS_P1;PMS_P2;Temp;Humidity;BMP_temperature;BMP_pressure;BME280_temperature;BME280_humidity;BME280_pressure;Samples;Min_cycle;Max_cycle;Signal;HPM_P1;HPM_P2
2022/05/13 00:00:07;;;;;;;;;;;;;;;;;;349972;28;1364;-80
2022/05/13 00:00:17;;;;;;;;;;;;;;;;;;350104;28;885;-81
2022/05/13 00:00:28;;;;;;;;;;;;;;;;;;350123;28;1192;-81
2022/05/13 00:00:39;;;;;;;;;;;;;;;;;;350073;28;838;-80
2022/05/13 00:00:52;;;;;;;;;;;;;;;;;;350115;28;987;-80
2022/05/13 00:01:12;;;;;;;;;;;;;;;;;;350152;28;881;-81
2022/05/13 00:01:22;;;;;;;;;;;;;;;;;;350003;28;949;-81
2022/05/13 00:01:36;;;;;;;;;;;;;;;;;;350022;28;962;-80
2022/05/13 00:01:49;;;;;;;;;;;;;;;;;;350094;28;857;-81
2022/05/13 00:02:00;;;;;;;;;;;;;;;;;;349438;28;1560;-81
2022/05/13 00:02:11;;;;;;;;;;;;;;;;;;350132;28;878;-81
2022/05/13 00:02:22;;;;;;;;;;;;;;;;;;350082;28;973;-80
2022/05/13 00:02:32;;;;;;;;;;;;;;;;;;350122;28;1009;-81
2022/05/13 00:02:45;;;;;;;;;;;;;;;;;;350094;28;902;-81
2022/05/13 00:02:58;;;;;;;;;;;;;;;;;;350083;28;889;-81
2022/05/13 00:03:08;;;;;;;;;;;;;;;;;;350209;28;814;-81
2022/05/13 00:03:22;;;;;;;;;;;;;;;;;;350046;28;822;-80
2022/05/13 00:03:32;;;;;;;;;;;;;;;;;;350088;28;1016;-80
2022/05/13 00:03:43;;;;;;;;;;;;;;;;;;350125;28;899;-81
2022/05/13 00:03:53;;;;;;;;;;;;;;;;;;350061;28;850;-81
2022/05/13 00:04:05;;;;;;;;;;;;;;;;;;349939;28;1279;-81
2022/05/13 00:04:16;;;;;;;;;;;;;;;;;;350084;28;841;-81
2022/05/13 00:04:35;;;;;;;;;;;;;;;;;;349984;28;830;-79
2022/05/13 00:04:46;;;;;;;;;;;;;;;;;;349993;28;822;-81
2022/05/13 00:04:56;;;;;;;;;;;;;;;;;;349965;28;939;-81
2022/05/13 00:05:09;;;;;;;;;;;;;;;;;;349984;28;930;-80
2022/05/13 00:05:23;;;;;;;;;;;;;;;;;;349918;28;1041;-80
2022/05/13 00:05:34;;;;;;;;;;;;;;;;;;350010;28;917;-80
2022/05/13 00:05:44;;;;;;;;;;;;;;;;;;350000;28;881;-81
2022/05/13 00:05:55;;;;;;;;;;;;;;;;;;349899;28;1031;-81
2022/05/13 00:06:07;;;;;;;;;;;;;;;;;;349553;28;1386;-81
2022/05/13 00:06:18;;;;;;;;;;;;;;;;;;348736;28;834;-81
2022/05/13 00:06:29;;;;;;;;;;;;;;;;;;348668;28;1043;-81
2022/05/13 00:06:39;;;;;;;;;;;;;;;;;;348746;28;917;-81
2022/05/13 00:06:52;;;;;;;;;;;;;;;;;;348732;28;862;-81
2022/05/13 00:07:03;;;;;;;;;;;;;;;;;;348293;28;944;-80
2022/05/13 00:07:16;;;;;;;;;;;;;;;;;;348758;28;854;-80
2022/05/13 00:07:30;;;;;;;;;;;;;;;;;;349435;28;1437;-80
2022/05/13 00:07:40;;;;;;;;;;;;;;;;;;350020;28;1567;-81
2022/05/13 00:07:51;;;;;;;;;;;;;;;;;;350072;28;798;-80
2022/05/13 00:08:04;;;;;;;;;;;;;;;;;;350155;28;876;-80
2022/05/13 00:08:18;;;;;;;;;;;;;;;;;;350130;28;928;-81
2022/05/13 00:08:31;;;;;;;;;;;;;;;;;;350157;28;890;-81
2022/05/13 00:08:42;;;;;;;;;;;;;;;;;;350141;28;1005;-81
2022/05/13 00:08:52;;;;;;;;;;;;;;;;;;350079;28;943;-80
2022/05/13 00:09:06;;;;;;;;;;;;;;;;;;350044;28;1949;-80
2022/05/13 00:09:56;;;;;;;;;;;;;;;;;;350112;28;893;-80
2022/05/13 00:10:05;;;;;;;;;;;;;;;;;;350005;28;936;-81
2022/05/13 00:10:18;;;;;;;;;;;;;;;;;;350112;28;1012;-81
2022/05/13 00:10:29;;;;;;;;;;;;;;;;;;349887;28;1402;-80
2022/05/13 00:10:39;;;;;;;;;;;;;;;;;;348719;28;971;-80
2022/05/13 00:10:52;;;;;;;;;;;;;;;;;;348999;28;803;-80
2022/05/13 00:11:09;;;;;;;;;;;;;;;;;;350126;28;896;-80
2022/05/13 00:11:20;;;;;;;;;;;;;;;;;;348558;28;996;-80
2022/05/13 00:11:35;;;;;;;;;;;;;;;;;;348554;28;1509;-80
2022/05/13 00:11:48;;;;;;;;;;;;;;;;;;349956;28;928;-80
2022/05/13 00:11:59;;;;;;;;;;;;;;;;;;349944;28;857;-80
2022/05/13 00:12:15;;;;;;;;;;;;;;;;;;349993;28;940;-80
2022/05/13 00:12:33;;;;;;;;;;;;;;;;;;350064;28;920;-80
2022/05/13 00:12:43;;;;;;;;;;;;;;;;;;349994;28;992;-80
2022/05/13 00:12:54;;;;;;;;;;;;;;;;;;349912;28;933;-80
2022/05/13 00:13:09;;;;;;;;;;;;;;;;;;348418;28;1342;-80
2022/05/13 00:13:19;;;;;;;;;;;;;;;;;;349515;28;944;-81
2022/05/13 00:13:29;;;;;;;;;;;;;;;;;;350054;28;878;-81
2022/05/13 00:13:43;;;;;;;;;;;;;;;;;;350165;28;805;-81
2022/05/13 00:14:00;;;;;;;;;;;;;;;;;;350091;28;888;-80
2022/05/13 00:14:11;;;;;;;;;;;;;;;;;;349877;28;1322;-80
2022/05/13 00:14:21;;;;;;;;;;;;;;;;;;350070;28;981;-81
2022/05/13 00:14:38;;;;;;;;;;;;;;;;;;350052;28;874;-80
2022/05/13 00:14:48;;;;;;;;;;;;;;;;;;350134;28;893;-80
2022/05/13 00:15:03;;;;;;;;;;;;;;;;;;350373;28;928;-79
2022/05/13 00:15:16;;;;;;;;;;;;;;;;;;350135;28;884;-81
2022/05/13 00:15:29;;;;;;;;;;;;;;;;;;350065;28;956;-81
2022/05/13 00:15:42;;;;;;;;;;;;;;;;;;350104;28;932;-80
2022/05/13 00:15:54;;;;;;;;;;;;;;;;;;350085;28;896;-80
2022/05/13 00:16:08;;;;;;;;;;;;;;;;;;350049;28;872;-80
2022/05/13 00:16:55;;;;;;;;;;;;;;;;;;346861;28;1368;-80
2022/05/13 00:17:06;;;;;;;;;;;;;;;;;;350120;28;855;-81
2022/05/13 00:17:17;;;;;;;;;;;;;;;;;;350111;28;888;-81
2022/05/13 00:17:30;;;;;;;;;;;;;;;;;;350107;28;907;-81
2022/05/13 00:17:40;;;;;;;;;;;;;;;;;;350163;28;813;-80
2022/05/13 00:18:00;;;;;;;;;;;;;;;;;;350053;28;903;-81
2022/05/13 00:18:11;;;;;;;;;;;;;;;;;;350040;28;994;-81
2022/05/13 00:18:21;;;;;;;;;;;;;;;;;;350082;28;849;-81
2022/05/13 00:18:34;;;;;;;;;;;;;;;;;;350107;28;1009;-80
2022/05/13 00:18:45;;;;;;;;;;;;;;;;;;350078;28;880;-81
2022/05/13 00:18:55;;;;;;;;;;;;;;;;;;350152;28;864;-81
2022/05/13 00:19:10;;;;;;;;;;;;;;;;;;350041;28;1210;-80
2022/05/13 00:19:21;;;;;;;;;;;;;;;;;;349535;28;1238;-81
2022/05/13 00:19:33;;;;;;;;;;;;;;;;;;349432;28;1038;-81
2022/05/13 00:19:46;;;;;;;;;;;;;;;;;;350109;28;825;-81
2022/05/13 00:20:04;;;;;;;;;;;;;;;;;;349975;28;892;-80
2022/05/13 00:20:14;;;;;;;;;;;;;;;;;;350061;28;977;-81
2022/05/13 00:20:28;;;;;;;;;;;;;;;;;;350066;28;826;-81
2022/05/13 00:20:39;;;;;;;;;;;;;;;;;;350124;28;854;-81
2022/05/13 00:20:49;;;;;;;;;;;;;;;;;;350083;28;1168;-80
2022/05/13 00:21:00;;;;;;;;;;;;;;;;;;350058;28;947;-81
2022/05/13 00:21:13;;;;;;;;;;;;;;;;;;350161;28;824;-81
2022/05/13 00:21:23;;;;;;;;;;;;;;;;;;350126;28;841;-81
2022/05/13 00:21:34;;;;;;;;;;;;;;;;;;350035;28;958;-81
2022/05/13 00:21:44;;;;;;;;;;;;;;;;;;350104;28;972;-81
2022/05/13 00:21:55;;;;;;;;;;;;;;;;;;350142;28;825;-81
2022/05/13 00:22:07;;;;;;;;;;;;;;;;;;350072;28;861;-81
2022/05/13 00:22:19;;;;;;;;;;;;;;;;;;350087;28;844;-81
2022/05/13 00:22:32;;;;;;;;;;;;;;;;;;350165;28;903;-81
2022/05/13 00:22:47;;;;;;;;;;;;;;;;;;350154;28;1035;-81
2022/05/13 00:23:10;;;;;;;;;;;;;;;;;;350037;28;1062;-81
2022/05/13 00:23:20;;;;;;;;;;;;;;;;;;350115;28;880;-81
2022/05/13 00:23:40;;;;;;;;;;;;;;;;;;350169;28;877;-80
2022/05/13 00:23:58;;;;;;;;;;;;;;;;;;350117;28;828;-80
2022/05/13 00:24:08;;;;;;;;;;;;;;;;;;350109;28;996;-81
2022/05/13 00:24:22;;;;;;;;;;;;;;;;;;349989;28;920;-81
2022/05/13 00:24:37;;;;;;;;;;;;;;;;;;350340;28;1019;-80
2022/05/13 00:24:48;;;;;;;;;;;;;;;;;;350069;28;916;-80
2022/05/13 00:24:58;;;;;;;;;;;;;;;;;;350058;28;943;-80
2022/05/13 00:25:09;;;;;;;;;;;;;;;;;;350073;28;977;-80
2022/05/13 00:25:21;;;;;;;;;;;;;;;;;;350059;28;928;-80
2022/05/13 00:25:36;;;;;;;;;;;;;;;;;;350090;28;1044;-81
2022/05/13 00:25:47;;;;;;;;;;;;;;;;;;350104;28;853;-81
2022/05/13 00:26:00;;;;;;;;;;;;;;;;;;349153;28;1446;-80
2022/05/13 00:26:10;;;;;;;;;;;;;;;;;;348689;28;801;-81
2022/05/13 00:26:21;;;;;;;;;;;;;;;;;;348645;28;817;-81
2022/05/13 00:26:31;;;;;;;;;;;;;;;;;;348724;28;868;-81
2022/05/13 00:27:03;;;;;;;;;;;;;;;;;;348198;28;1271;-81
2022/05/13 00:27:13;;;;;;;;;;;;;;;;;;348323;28;993;-80
2022/05/13 00:27:24;;;;;;;;;;;;;;;;;;348659;28;833;-81
2022/05/13 00:27:34;;;;;;;;;;;;;;;;;;348690;28;810;-80
2022/05/13 00:27:47;;;;;;;;;;;;;;;;;;348581;28;940;-80
2022/05/13 00:27:58;;;;;;;;;;;;;;;;;;348727;28;921;-81
2022/05/13 00:28:09;;;;;;;;;;;;;;;;;;348622;28;1239;-81
2022/05/13 00:28:23;;;;;;;;;;;;;;;;;;348668;28;905;-80
2022/05/13 00:28:38;;;;;;;;;;;;;;;;;;348705;28;959;-81
2022/05/13 00:28:48;;;;;;;;;;;;;;;;;;348464;28;1486;-80
2022/05/13 00:28:59;;;;;;;;;;;;;;;;;;348585;28;1957;-80
2022/05/13 00:29:15;;;;;;;;;;;;;;;;;;348604;28;881;-80
2022/05/13 00:29:27;;;;;;;;;;;;;;;;;;348513;28;926;-80
2022/05/13 00:29:58;;;;;;;;;;;;;;;;;;348603;28;952;-81
2022/05/13 00:30:09;;;;;;;;;;;;;;;;;;348555;28;1493;-79
2022/05/13 00:30:20;;;;;;;;;;;;;;;;;;349240;28;1512;-80
2022/05/13 00:30:36;;;;;;;;;;;;;;;;;;349941;28;799;-80
2022/05/13 00:30:50;;;;;;;;;;;;;;;;;;350023;28;911;-80
2022/05/13 00:31:04;;;;;;;;;;;;;;;;;;350110;28;967;-80
2022/05/13 00:31:17;;;;;;;;;;;;;;;;;;350307;28;996;-81
2022/05/13 00:31:33;;;;;;;;;;;;;;;;;;350137;28;897;-81
2022/05/13 00:31:46;;;;;;;;;;;;;;;;;;350030;28;881;-81
2022/05/13 00:31:56;;;;;;;;;;;;;;;;;;350090;28;1016;-80
2022/05/13 00:32:07;;;;;;;;;;;;;;;;;;349961;28;840;-80
2022/05/13 00:32:26;;;;;;;;;;;;;;;;;;350067;28;961;-82
2022/05/13 00:32:39;;;;;;;;;;;;;;;;;;349598;28;908;-79
2022/05/13 00:32:50;;;;;;;;;;;;;;;;;;350064;28;1109;-80
2022/05/13 00:33:03;;;;;;;;;;;;;;;;;;349983;28;973;-81
2022/05/13 00:33:14;;;;;;;;;;;;;;;;;;349314;28;1453;-80
2022/05/13 00:33:27;;;;;;;;;;;;;;;;;;350074;28;900;-80
2022/05/13 00:33:38;;;;;;;;;;;;;;;;;;350041;28;970;-80
2022/05/13 00:33:51;;;;;;;;;;;;;;;;;;350275;28;967;-79
2022/05/13 00:34:02;;;;;;;;;;;;;;;;;;350070;28;1081;-80
2022/05/13 00:34:15;;;;;;;;;;;;;;;;;;350039;28;845;-81
2022/05/13 00:34:25;;;;;;;;;;;;;;;;;;350154;28;853;-80
2022/05/13 00:34:36;;;;;;;;;;;;;;;;;;349956;28;869;-80
2022/05/13 00:34:48;;;;;;;;;;;;;;;;;;350049;28;951;-80
2022/05/13 00:35:07;;;;;;;;;;;;;;;;;;350306;28;962;-80
2022/05/13 00:35:19;;;;;;;;;;;;;;;;;;350132;28;888;-80
2022/05/13 00:35:29;;;;;;;;;;;;;;;;;;350054;28;970;-80
2022/05/13 00:35:42;;;;;;;;;;;;;;;;;;350117;28;801;-81
2022/05/13 00:35:59;;;;;;;;;;;;;;;;;;350062;28;904;-81
2022/05/13 00:36:09;;;;;;;;;;;;;;;;;;350110;28;935;-80
2022/05/13 00:36:19;;;;;;;;;;;;;;;;;;350074;28;872;-80
2022/05/13 00:36:32;;;;;;;;;;;;;;;;;;350119;28;868;-81
2022/05/13 00:36:42;;;;;;;;;;;;;;;;;;350127;28;794;-80
2022/05/13 00:36:53;;;;;;;;;;;;;;;;;;350115;28;837;-81
2022/05/13 00:37:03;;;;;;;;;;;;;;;;;;350088;28;1000;-81
2022/05/13 00:37:14;;;;;;;;;;;;;;;;;;350053;28;887;-80
2022/05/13 00:37:27;;;;;;;;;;;;;;;;;;350150;28;884;-80
2022/05/13 00:37:37;;;;;;;;;;;;;;;;;;350064;28;933;-81
2022/05/13 00:37:48;;;;;;;;;;;;;;;;;;350066;28;824;-81
2022/05/13 00:38:01;;;;;;;;;;;;;;;;;;349272;28;1008;-80
2022/05/13 00:38:12;;;;;;;;;;;;;;;;;;350057;28;993;-80
2022/05/13 00:38:26;;;;;;;;;;;;;;;;;;350028;28;870;-80
2022/05/13 00:38:36;;;;;;;;;;;;;;;;;;350106;28;849;-81
2022/05/13 00:38:47;;;;;;;;;;;;;;;;;;350067;28;881;-81
2022/05/13 00:38:58;;;;;;;;;;;;;;;;;;350043;28;932;-80
2022/05/13 00:39:11;;;;;;;;;;;;;;;;;;350039;28;999;-81
2022/05/13 00:39:24;;;;;;;;;;;;;;;;;;350117;28;885;-81
2022/05/13 00:39:37;;;;;;;;;;;;;;;;;;350149;28;790;-81
2022/05/13 00:39:50;;;;;;;;;;;;;;;;;;350064;28;913;-80
2022/05/13 00:40:02;;;;;;;;;;;;;;;;;;350053;28;878;-80
2022/05/13 00:40:13;;;;;;;;;;;;;;;;;;350084;28;903;-81
2022/05/13 00:40:27;;;;;;;;;;;;;;;;;;350077;28;903;-81
2022/05/13 00:40:37;;;;;;;;;;;;;;;;;;349611;28;1035;-80
2022/05/13 00:40:48;;;;;;;;;;;;;;;;;;350050;28;936;-81
2022/05/13 00:41:00;;;;;;;;;;;;;;;;;;349986;28;889;-81
2022/05/13 00:41:13;;;;;;;;;;;;;;;;;;349715;28;974;-80
2022/05/13 00:41:23;;;;;;;;;;;;;;;;;;350072;28;868;-81
2022/05/13 00:41:34;;;;;;;;;;;;;;;;;;350098;28;921;-80
2022/05/13 00:41:45;;;;;;;;;;;;;;;;;;350112;28;837;-81
2022/05/13 00:42:04;;;;;;;;;;;;;;;;;;350088;28;805;-80
2022/05/13 00:42:14;;;;;;;;;;;;;;;;;;350117;28;807;-80
2022/05/13 00:42:25;;;;;;;;;;;;;;;;;;350163;28;833;-81
2022/05/13 00:42:35;;;;;;;;;;;;;;;;;;350100;28;840;-80
2022/05/13 00:42:49;;;;;;;;;;;;;;;;;;350030;28;1025;-81
2022/05/13 00:43:03;;;;;;;;;;;;;;;;;;349986;28;992;-81
2022/05/13 00:43:14;;;;;;;;;;;;;;;;;;350082;28;1011;-81
2022/05/13 00:44:00;;;;;;;;;;;;;;;;;;350066;28;921;-81
2022/05/13 00:44:10;;;;;;;;;;;;;;;;;;350015;28;906;-81
2022/05/13 00:44:23;;;;;;;;;;;;;;;;;;350090;28;979;-80
2022/05/13 00:44:36;;;;;;;;;;;;;;;;;;349167;28;1310;-80
2022/05/13 00:44:46;;;;;;;;;;;;;;;;;;350027;28;1094;-80
2022/05/13 00:44:59;;;;;;;;;;;;;;;;;;349964;28;956;-80
2022/05/13 00:45:13;;;;;;;;;;;;;;;;;;350098;28;881;-80
2022/05/13 00:45:23;;;;;;;;;;;;;;;;;;350183;28;782;-79
2022/05/13 00:45:34;;;;;;;;;;;;;;;;;;350210;28;961;-80
2022/05/13 00:45:44;;;;;;;;;;;;;;;;;;350262;28;1521;-79
2022/05/13 00:45:54;;;;;;;;;;;;;;;;;;350099;28;905;-79
2022/05/13 00:46:05;;;;;;;;;;;;;;;;;;350110;28;845;-79
2022/05/13 00:46:19;;;;;;;;;;;;;;;;;;350130;28;876;-79
2022/05/13 00:46:35;;;;;;;;;;;;;;;;;;350004;28;1029;-79
2022/05/13 00:46:51;;;;;;;;;;;;;;;;;;349644;28;1019;-80
2022/05/13 00:47:05;;;;;;;;;;;;;;;;;;350120;28;848;-80
2022/05/13 00:47:19;;;;;;;;;;;;;;;;;;349970;28;1015;-80
2022/05/13 00:47:29;;;;;;;;;;;;;;;;;;350099;28;797;-79
2022/05/13 00:47:40;;;;;;;;;;;;;;;;;;350078;28;861;-79
2022/05/13 00:47:50;;;;;;;;;;;;;;;;;;350046;28;920;-80
2022/05/13 00:48:12;;;;;;;;;;;;;;;;;;350020;28;971;-78
2022/05/13 00:48:22;;;;;;;;;;;;;;;;;;350094;28;853;-80
2022/05/13 00:48:36;;;;;;;;;;;;;;;;;;350095;28;896;-79
2022/05/13 00:48:49;;;;;;;;;;;;;;;;;;349982;28;932;-79
2022/05/13 00:49:03;;;;;;;;;;;;;;;;;;349979;28;1956;-79
2022/05/13 00:49:16;;;;;;;;;;;;;;;;;;349908;28;837;-79
2022/05/13 00:49:27;;;;;;;;;;;;;;;;;;349933;28;881;-80
2022/05/13 00:49:41;;;;;;;;;;;;;;;;;;349995;28;809;-79
2022/05/13 00:49:53;;;;;;;;;;;;;;;;;;349923;28;1008;-79
2022/05/13 00:50:07;;;;;;;;;;;;;;;;;;349960;28;946;-79
2022/05/13 00:50:18;;;;;;;;;;;;;;;;;;350037;28;947;-81
2022/05/13 00:50:31;;;;;;;;;;;;;;;;;;350093;28;809;-81
2022/05/13 00:50:42;;;;;;;;;;;;;;;;;;350095;28;789;-80
2022/05/13 00:50:53;;;;;;;;;;;;;;;;;;350041;28;846;-80
2022/05/13 00:51:05;;;;;;;;;;;;;;;;;;350073;28;871;-80
2022/05/13 00:51:22;;;;;;;;;;;;;;;;;;349955;28;940;-80
2022/05/13 00:51:35;;;;;;;;;;;;;;;;;;350086;28;920;-80
2022/05/13 00:51:47;;;;;;;;;;;;;;;;;;350063;28;882;-80
2022/05/13 00:51:59;;;;;;;;;;;;;;;;;;350111;28;881;-81
2022/05/13 00:52:12;;;;;;;;;;;;;;;;;;350056;28;883;-80
2022/05/13 00:52:26;;;;;;;;;;;;;;;;;;349951;28;1073;-81
2022/05/13 00:52:37;;;;;;;;;;;;;;;;;;349984;28;976;-80
2022/05/13 00:52:49;;;;;;;;;;;;;;;;;;350179;28;1006;-81
2022/05/13 00:53:00;;;;;;;;;;;;;;;;;;350121;28;923;-81
2022/05/13 00:53:11;;;;;;;;;;;;;;;;;;350090;28;842;-80
2022/05/13 00:53:23;;;;;;;;;;;;;;;;;;349999;28;915;-79
2022/05/13 00:53:36;;;;;;;;;;;;;;;;;;350050;28;923;-80
2022/05/13 00:53:47;;;;;;;;;;;;;;;;;;350055;28;940;-80
2022/05/13 00:54:01;;;;;;;;;;;;;;;;;;350163;28;885;-80
2022/05/13 00:54:14;;;;;;;;;;;;;;;;;;350363;28;913;-80
2022/05/13 00:54:25;;;;;;;;;;;;;;;;;;350046;28;905;-80
2022/05/13 00:54:37;;;;;;;;;;;;;;;;;;350025;28;981;-80
2022/05/13 00:54:48;;;;;;;;;;;;;;;;;;350160;28;822;-80
2022/05/13 00:55:01;;;;;;;;;;;;;;;;;;350050;28;1024;-80
2022/05/13 00:55:14;;;;;;;;;;;;;;;;;;350006;28;915;-80
2022/05/13 00:55:30;;;;;;;;;;;;;;;;;;350165;28;972;-80
2022/05/13 00:55:42;;;;;;;;;;;;;;;;;;350062;28;946;-80
2022/05/13 00:55:53;;;;;;;;;;;;;;;;;;350145;28;809;-80
2022/05/13 00:56:04;;;;;;;;;;;;;;;;;;350058;28;912;-80
2022/05/13 00:56:19;;;;;;;;;;;;;;;;;;350407;28;952;-80
2022/05/13 00:56:32;;;;;;;;;;;;;;;;;;350068;28;825;-80
2022/05/13 00:56:45;;;;;;;;;;;;;;;;;;350119;28;884;-80
2022/05/13 00:57:01;;;;;;;;;;;;;;;;;;350078;28;885;-80
2022/05/13 00:57:11;;;;;;;;;;;;;;;;;;350156;28;916;-80
2022/05/13 00:57:22;;;;;;;;;;;;;;;;;;350078;28;1077;-80
2022/05/13 00:57:35;;;;;;;;;;;;;;;;;;349967;28;1200;-80
2022/05/13 00:57:46;;;;;;;;;;;;;;;;;;349946;28;953;-80
2022/05/13 00:57:57;;;;;;;;;;;;;;;;;;350114;28;920;-80
2022/05/13 00:58:10;;;;;;;;;;;;;;;;;;349999;28;941;-81
2022/05/13 00:58:21;;;;;;;;;;;;;;;;;;350097;28;887;-80
2022/05/13 00:58:36;;;;;;;;;;;;;;;;;;349982;28;994;-80
2022/05/13 00:58:47;;;;;;;;;;;;;;;;;;349998;28;872;-80
2022/05/13 00:59:01;;;;;;;;;;;;;;;;;;350058;28;841;-79
2022/05/13 00:59:18;;;;;;;;;;;;;;;;;;350077;28;878;-80
2022/05/13 00:59:33;;;;;;;;;;;;;;;;;;350109;28;996;-80
2022/05/13 00:59:45;;;;;;;;;;;;;;;;;;349996;28;853;-79
2022/05/13 00:59:58;;;;;;;;;;;;;;;;;;350122;28;829;-80
2022/05/13 01:00:11;;;;;;;;;;;;;;;;;;349926;28;1543;-80
2022/05/13 01:00:21;;;;;;;;;;;;;;;;;;348745;28;911;-80
2022/05/13 01:00:32;;;;;;;;;;;;;;;;;;348624;28;909;-80
2022/05/13 01:00:46;;;;;;;;;;;;;;;;;;349021;28;922;-80
2022/05/13 01:00:57;;;;;;;;;;;;;;;;;;348717;28;905;-80
2022/05/13 01:01:13;;;;;;;;;;;;;;;;;;348605;28;954;-80
2022/05/13 01:01:24;;;;;;;;;;;;;;;;;;348309;28;878;-80
2022/05/13 01:01:34;;;;;;;;;;;;;;;;;;348610;28;991;-80
2022/05/13 01:01:48;;;;;;;;;;;;;;;;;;348618;28;806;-80
2022/05/13 01:01:58;;;;;;;;;;;;;;;;;;348668;28;846;-80
2022/05/13 01:02:11;;;;;;;;;;;;;;;;;;348597;28;905;-79
2022/05/13 01:02:27;;;;;;;;;;;;;;;;;;348696;28;1116;-80
2022/05/13 01:02:37;;;;;;;;;;;;;;;;;;348577;28;915;-80
2022/05/13 01:02:48;;;;;;;;;;;;;;;;;;348708;28;845;-80
2022/05/13 01:03:00;;;;;;;;;;;;;;;;;;348629;28;991;-80
2022/05/13 01:03:11;;;;;;;;;;;;;;;;;;348369;28;954;-80
2022/05/13 01:03:23;;;;;;;;;;;;;;;;;;348680;28;933;-80
2022/05/13 01:03:36;;;;;;;;;;;;;;;;;;348688;28;819;-80
2022/05/13 01:03:50;;;;;;;;;;;;;;;;;;348547;28;892;-80
2022/05/13 01:04:02;;;;;;;;;;;;;;;;;;348624;28;991;-80
2022/05/13 01:04:14;;;;;;;;;;;;;;;;;;348582;28;943;-80
2022/05/13 01:04:31;;;;;;;;;;;;;;;;;;348675;28;888;-80
2022/05/13 01:04:44;;;;;;;;;;;;;;;;;;348617;28;988;-80
2022/05/13 01:04:57;;;;;;;;;;;;;;;;;;348672;28;910;-81
2022/05/13 01:05:08;;;;;;;;;;;;;;;;;;348631;28;857;-81
2022/05/13 01:05:22;;;;;;;;;;;;;;;;;;348591;28;908;-81
2022/05/13 01:05:34;;;;;;;;;;;;;;;;;;348663;28;882;-80
2022/05/13 01:05:47;;;;;;;;;;;;;;;;;;348670;28;909;-80
2022/05/13 01:06:06;;;;;;;;;;;;;;;;;;348623;28;833;-80
2022/05/13 01:06:21;;;;;;;;;;;;;;;;;;348704;28;837;-81
2022/05/13 01:06:32;;;;;;;;;;;;;;;;;;348661;28;1020;-81
2022/05/13 01:06:51;;;;;;;;;;;;;;;;;;348697;28;924;-81
2022/05/13 01:07:04;;;;;;;;;;;;;;;;;;348620;28;1011;-80
2022/05/13 01:07:19;;;;;;;;;;;;;;;;;;348654;28;942;-80
2022/05/13 01:07:34;;;;;;;;;;;;;;;;;;349441;28;1327;-81
2022/05/13 01:07:45;;;;;;;;;;;;;;;;;;350116;28;877;-80
2022/05/13 01:08:00;;;;;;;;;;;;;;;;;;349981;28;873;-80
2022/05/13 01:08:11;;;;;;;;;;;;;;;;;;350110;28;904;-81
2022/05/13 01:08:22;;;;;;;;;;;;;;;;;;350076;28;814;-80
2022/05/13 01:08:35;;;;;;;;;;;;;;;;;;350068;28;879;-80
2022/05/13 01:08:47;;;;;;;;;;;;;;;;;;349996;28;959;-80
2022/05/13 01:08:57;;;;;;;;;;;;;;;;;;350051;28;915;-80
2022/05/13 01:09:08;;;;;;;;;;;;;;;;;;349991;28;1898;-80
2022/05/13 01:09:19;;;;;;;;;;;;;;;;;;350036;28;928;-80
2022/05/13 01:09:32;;;;;;;;;;;;;;;;;;350078;28;861;-80
2022/05/13 01:09:48;;;;;;;;;;;;;;;;;;350004;28;848;-81
2022/05/13 01:10:00;;;;;;;;;;;;;;;;;;350000;28;1007;-80
2022/05/13 01:10:19;;;;;;;;;;;;;;;;;;350050;28;952;-80
2022/05/13 01:10:34;;;;;;;;;;;;;;;;;;350213;28;889;-80
2022/05/13 01:10:44;;;;;;;;;;;;;;;;;;350097;28;822;-80
2022/05/13 01:10:55;;;;;;;;;;;;;;;;;;350059;28;810;-80
2022/05/13 01:11:12;;;;;;;;;;;;;;;;;;350106;28;986;-80
2022/05/13 01:11:27;;;;;;;;;;;;;;;;;;349883;28;960;-79
2022/05/13 01:11:45;;;;;;;;;;;;;;;;;;350014;28;952;-80
2022/05/13 01:11:57;;;;;;;;;;;;;;;;;;349947;28;939;-80
2022/05/13 01:12:15;;;;;;;;;;;;;;;;;;350026;28;861;-80
2022/05/13 01:12:31;;;;;;;;;;;;;;;;;;350045;28;916;-79
2022/05/13 01:12:44;;;;;;;;;;;;;;;;;;349076;28;1430;-79
2022/05/13 01:12:57;;;;;;;;;;;;;;;;;;350055;28;790;-79
2022/05/13 01:13:13;;;;;;;;;;;;;;;;;;349904;28;998;-80
2022/05/13 01:13:29;;;;;;;;;;;;;;;;;;350053;28;826;-79
2022/05/13 01:13:40;;;;;;;;;;;;;;;;;;350040;28;852;-80
2022/05/13 01:13:53;;;;;;;;;;;;;;;;;;350067;28;921;-79
2022/05/13 01:14:08;;;;;;;;;;;;;;;;;;350034;28;876;-79
2022/05/13 01:14:22;;;;;;;;;;;;;;;;;;349924;28;1018;-79
2022/05/13 01:14:35;;;;;;;;;;;;;;;;;;349990;28;909;-79
2022/05/13 01:14:55;;;;;;;;;;;;;;;;;;350051;28;857;-79
2022/05/13 01:15:07;;;;;;;;;;;;;;;;;;350079;28;817;-80
2022/05/13 01:15:20;;;;;;;;;;;;;;;;;;350025;28;912;-79
2022/05/13 01:15:34;;;;;;;;;;;;;;;;;;349975;28;1013;-80
2022/05/13 01:15:47;;;;;;;;;;;;;;;;;;350076;28;888;-80
2022/05/13 01:16:03;;;;;;;;;;;;;;;;;;350063;28;958;-79
2022/05/13 01:16:13;;;;;;;;;;;;;;;;;;350029;28;912;-81
2022/05/13 01:16:24;;;;;;;;;;;;;;;;;;349954;28;1006;-80
2022/05/13 01:18:05;;;;;;;;;;;;;;;;;;350031;28;841;-80
2022/05/13 01:18:33;;;;;;;;;;;;;;;;;;349802;28;1437;-80
2022/05/13 01:18:43;;;;;;;;;;;;;;;;;;348596;28;1100;-80
2022/05/13 01:18:56;;;;;;;;;;;;;;;;;;348621;28;996;-80
2022/05/13 01:19:08;;;;;;;;;;;;;;;;;;348607;28;880;-81
2022/05/13 01:19:18;;;;;;;;;;;;;;;;;;348647;28;836;-80
2022/05/13 01:19:28;;;;;;;;;;;;;;;;;;348645;28;830;-80
2022/05/13 01:19:39;;;;;;;;;;;;;;;;;;348716;28;821;-80
2022/05/13 01:19:52;;;;;;;;;;;;;;;;;;348731;28;935;-80
2022/05/13 01:20:03;;;;;;;;;;;;;;;;;;348629;28;911;-80
2022/05/13 01:20:18;;;;;;;;;;;;;;;;;;348688;28;861;-80
2022/05/13 01:20:30;;;;;;;;;;;;;;;;;;348571;28;996;-80
2022/05/13 01:20:48;;;;;;;;;;;;;;;;;;348778;28;862;-80
2022/05/13 01:20:59;;;;;;;;;;;;;;;;;;348698;28;885;-80
2022/05/13 01:21:11;;;;;;;;;;;;;;;;;;348587;28;809;-80
2022/05/13 01:21:26;;;;;;;;;;;;;;;;;;348623;28;900;-80
2022/05/13 01:21:36;;;;;;;;;;;;;;;;;;348683;28;992;-80
2022/05/13 01:21:48;;;;;;;;;;;;;;;;;;348677;28;1123;-80
2022/05/13 01:22:13;;;;;;;;;;;;;;;;;;348590;28;1012;-80
2022/05/13 01:22:26;;;;;;;;;;;;;;;;;;348618;28;1047;-81
2022/05/13 01:22:42;;;;;;;;;;;;;;;;;;348615;28;896;-81
2022/05/13 01:22:58;;;;;;;;;;;;;;;;;;348667;28;913;-80
2022/05/13 01:23:10;;;;;;;;;;;;;;;;;;349324;28;884;-80
2022/05/13 01:23:23;;;;;;;;;;;;;;;;;;348652;28;955;-80
2022/05/13 01:23:35;;;;;;;;;;;;;;;;;;348606;28;1051;-80
2022/05/13 01:23:45;;;;;;;;;;;;;;;;;;348621;28;1004;-80
2022/05/13 01:24:11;;;;;;;;;;;;;;;;;;347481;28;1377;-80
2022/05/13 01:24:21;;;;;;;;;;;;;;;;;;348629;28;877;-80
2022/05/13 01:24:37;;;;;;;;;;;;;;;;;;348630;28;856;-81
2022/05/13 01:24:51;;;;;;;;;;;;;;;;;;348917;28;970;-80
2022/05/13 01:25:01;;;;;;;;;;;;;;;;;;348627;28;882;-80
2022/05/13 01:25:13;;;;;;;;;;;;;;;;;;348616;28;1055;-80
2022/05/13 01:25:26;;;;;;;;;;;;;;;;;;348634;28;872;-80
2022/05/13 01:25:42;;;;;;;;;;;;;;;;;;348667;28;854;-80
2022/05/13 01:25:54;;;;;;;;;;;;;;;;;;348603;28;932;-80
2022/05/13 01:26:10;;;;;;;;;;;;;;;;;;348380;28;1527;-79
2022/05/13 01:26:25;;;;;;;;;;;;;;;;;;348594;28;999;-79
2022/05/13 01:26:39;;;;;;;;;;;;;;;;;;348714;28;841;-79
2022/05/13 01:26:49;;;;;;;;;;;;;;;;;;348584;28;873;-79
2022/05/13 01:27:00;;;;;;;;;;;;;;;;;;348611;28;1007;-79
2022/05/13 01:27:10;;;;;;;;;;;;;;;;;;348622;28;841;-79
2022/05/13 01:27:20;;;;;;;;;;;;;;;;;;348439;28;1418;-78
2022/05/13 01:27:31;;;;;;;;;;;;;;;;;;348460;28;932;-79
2022/05/13 01:27:42;;;;;;;;;;;;;;;;;;348466;28;787;-79
2022/05/13 01:27:54;;;;;;;;;;;;;;;;;;348609;28;869;-79
2022/05/13 01:28:07;;;;;;;;;;;;;;;;;;348570;28;1330;-80
2022/05/13 01:28:19;;;;;;;;;;;;;;;;;;348658;28;845;-80
2022/05/13 01:28:40;;;;;;;;;;;;;;;;;;348632;28;821;-80
2022/05/13 01:28:56;;;;;;;;;;;;;;;;;;348548;28;955;-79
2022/05/13 01:29:07;;;;;;;;;;;;;;;;;;348577;28;1978;-79
2022/05/13 01:29:18;;;;;;;;;;;;;;;;;;348607;28;817;-79
2022/05/13 01:29:28;;;;;;;;;;;;;;;;;;348644;28;932;-79
2022/05/13 01:29:41;;;;;;;;;;;;;;;;;;348561;28;1353;-80
2022/05/13 01:29:55;;;;;;;;;;;;;;;;;;348636;28;996;-79
2022/05/13 01:30:05;;;;;;;;;;;;;;;;;;348591;28;929;-80
2022/05/13 01:30:17;;;;;;;;;;;;;;;;;;349396;28;1567;-79
2022/05/13 01:30:28;;;;;;;;;;;;;;;;;;350002;28;876;-80
2022/05/13 01:30:43;;;;;;;;;;;;;;;;;;349993;28;951;-79
2022/05/13 01:31:00;;;;;;;;;;;;;;;;;;349457;28;925;-79
2022/05/13 01:31:11;;;;;;;;;;;;;;;;;;349903;28;976;-79
2022/05/13 01:31:26;;;;;;;;;;;;;;;;;;350066;28;877;-80
2022/05/13 01:31:38;;;;;;;;;;;;;;;;;;349942;28;872;-80
2022/05/13 01:31:48;;;;;;;;;;;;;;;;;;350041;28;944;-79
2022/05/13 01:31:58;;;;;;;;;;;;;;;;;;350016;28;903;-79
2022/05/13 01:32:09;;;;;;;;;;;;;;;;;;349978;28;814;-80
2022/05/13 01:32:22;;;;;;;;;;;;;;;;;;349989;28;927;-79
2022/05/13 01:32:32;;;;;;;;;;;;;;;;;;349930;28;903;-80
2022/05/13 01:32:43;;;;;;;;;;;;;;;;;;350007;28;874;-79
2022/05/13 01:32:56;;;;;;;;;;;;;;;;;;349731;28;1180;-80
2022/05/13 01:33:06;;;;;;;;;;;;;;;;;;349944;28;933;-80
2022/05/13 01:33:18;;;;;;;;;;;;;;;;;;349845;28;908;-80
2022/05/13 01:33:31;;;;;;;;;;;;;;;;;;349977;28;842;-80
2022/05/13 01:33:41;;;;;;;;;;;;;;;;;;349902;28;837;-80
2022/05/13 01:33:52;;;;;;;;;;;;;;;;;;349880;28;925;-80
2022/05/13 01:34:05;;;;;;;;;;;;;;;;;;349891;28;814;-80
2022/05/13 01:34:18;;;;;;;;;;;;;;;;;;349934;28;941;-81
2022/05/13 01:34:31;;;;;;;;;;;;;;;;;;349967;28;849;-80